Time;durP1;ratioP1;P1;durP2;ratioP2;P2;SDS_P1;SDS_P2;PMS_P1;PMS_P2;Temp;Humidity;BMP_temperature;BMP_pressure;BME280_temperature;BME280_humidity;BME280_pressure;Samples;Min_cycle;Max_cycle;Signal;HPM_P1;HPM_P2
2022/10/04 00:01:31;;;;;;;1.15;1.08;;;15.20;62.70;;;;;;5074568;28;20458;-81
2022/10/04 00:04:08;;;;;;;1.65;1.30;;;15.10;62.60;;;;;;5092481;28;20024;-80
2022/10/04 00:06:36;;;;;;;1.00;1.00;;;15.20;62.70;;;;;;5092666;28;20089;-80
2022/10/04 00:09:10;;;;;;;1.00;1.00;;;15.10;62.60;;;;;;5092763;28;20107;-81
2022/10/04 00:11:42;;;;;;;1.20;1.10;;;15.10;62.70;;;;;;5075195;28;20115;-81
2022/10/04 00:14:19;;;;;;;1.10;1.10;;;15.10;62.70;;;;;;5092790;28;20039;-81
2022/10/04 00:16:46;;;;;;;1.58;1.20;;;15.10;62.70;;;;;;5076173;28;20489;-80
2022/10/04 00:19:14;;;;;;;1.35;1.25;;;15.00;62.60;;;;;;5096755;28;20028;-80
2022/10/04 00:21:52;;;;;;;1.20;1.20;;;15.00;62.60;;;;;;5096818;28;20042;-81
2022/10/04 00:24:31;;;;;;;1.40;1.30;;;15.00;62.50;;;;;;5096639;28;20034;-80
2022/10/04 00:27:29;;;;;;;1.00;1.00;;;15.00;62.50;;;;;;5096821;28;20051;-81
2022/10/04 00:30:00;;;;;;;1.25;1.10;;;15.00;62.40;;;;;;5040240;28;20047;-80
2022/10/04 00:33:00;;;;;;;1.13;1.13;;;15.00;62.40;;;;;;5095790;28;20039;-80
2022/10/04 00:35:28;;;;;;;1.08;0.98;;;15.00;62.30;;;;;;5095476;28;20032;-81
2022/10/04 00:38:07;;;;;;;1.40;1.30;;;15.00;62.30;;;;;;5095572;28;20035;-80
2022/10/04 00:40:45;;;;;;;1.00;1.00;;;15.00;62.30;;;;;;5095124;28;20181;-81
2022/10/04 00:43:29;;;;;;;1.00;0.90;;;15.00;62.30;;;;;;5077386;28;20040;-77
2022/10/04 00:46:02;;;;;;;1.10;1.10;;;14.90;62.20;;;;;;5078230;28;20531;-80
2022/10/04 00:48:41;;;;;;;1.00;1.00;;;14.90;62.20;;;;;;5096070;28;20024;-80
2022/10/04 00:51:38;;;;;;;0.95;0.95;;;15.00;62.20;;;;;;5096599;28;20020;-80
2022/10/04 00:54:16;;;;;;;0.98;0.98;;;14.90;62.00;;;;;;5094968;28;20036;-80
2022/10/04 00:56:44;;;;;;;1.05;1.05;;;14.90;62.00;;;;;;5077527;28;20031;-80
2022/10/04 00:59:35;;;;;;;1.00;1.00;;;14.90;62.00;;;;;;5076673;28;20024;-77
2022/10/04 01:02:27;;;;;;;0.98;0.98;;;14.90;61.90;;;;;;5094911;28;20055;-76
2022/10/04 01:04:59;;;;;;;0.80;0.80;;;14.90;62.00;;;;;;5095086;28;20035;-80
2022/10/04 01:07:54;;;;;;;1.00;1.00;;;14.90;62.00;;;;;;5095563;28;20089;-79
2022/10/04 01:10:28;;;;;;;1.02;1.02;;;14.80;61.90;;;;;;5093744;28;20428;-81
2022/10/04 01:13:11;;;;;;;2.25;1.00;;;14.90;62.00;;;;;;5077498;28;20024;-82
2022/10/04 01:15:42;;;;;;;1.00;1.00;;;14.90;62.00;;;;;;5095470;28;20059;-81
2022/10/04 01:18:13;;;;;;;1.02;1.02;;;14.80;61.90;;;;;;5095902;28;20075;-80
2022/10/04 01:20:53;;;;;;;1.17;1.10;;;14.90;62.00;;;;;;5095405;28;20032;-81
2022/10/04 01:23:31;;;;;;;1.00;1.00;;;14.80;61.90;;;;;;5095310;28;20046;-81
2022/10/04 01:25:57;;;;;;;1.10;1.10;;;14.80;61.80;;;;;;5095240;28;20040;-81
2022/10/04 01:28:24;;;;;;;1.15;1.10;;;14.80;61.90;;;;;;5094173;28;20034;-81
2022/10/04 01:30:50;;;;;;;0.90;0.90;;;14.80;61.90;;;;;;5094414;28;20454;-80
2022/10/04 01:33:15;;;;;;;1.10;1.10;;;14.80;61.90;;;;;;5094616;28;20028;-81
2022/10/04 01:35:41;;;;;;;1.67;1.30;;;14.70;61.90;;;;;;5094328;28;20477;-81
2022/10/04 01:38:07;;;;;;;1.00;1.00;;;14.80;61.90;;;;;;5098403;28;20028;-78
2022/10/04 01:40:35;;;;;;;0.80;0.80;;;14.80;61.80;;;;;;5105077;28;20125;-80
2022/10/04 01:43:07;;;;;;;1.23;1.23;;;14.80;61.80;;;;;;5094987;28;20178;-82
2022/10/04 01:45:47;;;;;;;1.33;1.00;;;14.80;61.80;;;;;;5095365;28;20109;-80
2022/10/04 01:48:22;;;;;;;0.90;0.90;;;14.80;61.80;;;;;;5095389;28;20024;-81
2022/10/04 01:50:55;;;;;;;0.88;0.88;;;14.80;61.70;;;;;;5094928;28;20031;-81
2022/10/04 01:53:34;;;;;;;1.17;1.17;;;14.80;61.70;;;;;;5095190;28;20115;-81
2022/10/04 01:56:20;;;;;;;1.00;1.00;;;14.80;61.70;;;;;;5094958;28;20369;-79
2022/10/04 01:58:57;;;;;;;0.85;0.85;;;14.80;61.70;;;;;;5094205;28;20535;-80
2022/10/04 02:01:32;;;;;;;1.02;1.02;;;14.80;61.70;;;;;;5093728;28;20089;-80
2022/10/04 02:04:03;;;;;;;;;;;14.80;61.60;;;;;;5094420;28;20063;-80
2022/10/04 02:06:37;;;;;;;1.10;1.10;;;14.70;61.50;;;;;;5075650;28;19904;-81
2022/10/04 02:09:09;;;;;;;1.23;1.23;;;14.70;61.60;;;;;;5094639;28;20045;-80
2022/10/04 02:11:36;;;;;;;1.10;1.10;;;14.80;61.60;;;;;;5095083;28;20020;-80
2022/10/04 02:14:04;;;;;;;0.90;0.90;;;14.70;61.50;;;;;;5094482;28;20023;-80
2022/10/04 02:16:34;;;;;;;1.20;1.20;;;14.80;61.60;;;;;;5095017;28;20028;-82
2022/10/04 02:19:02;;;;;;;1.95;0.98;;;14.70;61.50;;;;;;5093984;28;20058;-80
2022/10/04 02:21:28;;;;;;;1.00;1.00;;;14.70;61.60;;;;;;5094487;28;20112;-80
2022/10/04 02:23:56;;;;;;;0.90;0.90;;;14.70;61.60;;;;;;5094453;28;20050;-81
2022/10/04 02:26:22;;;;;;;1.00;1.00;;;14.70;61.60;;;;;;5094614;28;20056;-81
2022/10/04 02:28:48;;;;;;;0.90;0.90;;;14.70;61.60;;;;;;5076426;28;20062;-81
2022/10/04 02:33:59;;;;;;;0.95;0.95;;;14.70;61.60;;;;;;5093153;28;20039;-81
2022/10/04 02:36:28;;;;;;;1.00;1.00;;;14.70;61.50;;;;;;5075150;28;20067;-81
2022/10/04 02:39:03;;;;;;;1.10;1.10;;;14.70;61.50;;;;;;5074785;28;20020;-80
2022/10/04 02:41:47;;;;;;;1.08;1.08;;;14.70;61.60;;;;;;5093304;28;20088;-81
2022/10/04 02:44:19;;;;;;;2.20;1.10;;;14.70;61.50;;;;;;5076708;28;20052;-80
2022/10/04 02:47:16;;;;;;;1.13;1.13;;;14.70;61.50;;;;;;5076018;28;20268;-82
2022/10/04 02:49:52;;;;;;;1.20;1.20;;;14.70;61.50;;;;;;5094062;28;20020;-81
2022/10/04 02:52:30;;;;;;;1.15;1.15;;;14.70;61.50;;;;;;5094066;28;20020;-80
2022/10/04 02:55:01;;;;;;;0.90;0.90;;;14.60;61.40;;;;;;5094133;28;20518;-81
2022/10/04 02:57:30;;;;;;;0.80;0.80;;;14.60;61.40;;;;;;5093887;28;20048;-79
2022/10/04 03:00:14;;;;;;;1.17;1.17;;;14.70;61.50;;;;;;5093271;28;20028;-80
2022/10/04 03:02:41;;;;;;;1.50;1.50;;;14.70;61.40;;;;;;5092731;28;20102;-79
2022/10/04 03:05:10;;;;;;;1.48;1.20;;;14.70;61.50;;;;;;5093079;28;20055;-78
2022/10/04 03:07:37;;;;;;;0.95;0.90;;;14.70;61.50;;;;;;5092934;28;20028;-80
2022/10/04 03:10:14;;;;;;;1.38;1.02;;;14.60;61.40;;;;;;5093652;28;20031;-81
2022/10/04 03:12:40;;;;;;;1.10;1.10;;;14.60;61.40;;;;;;5093630;28;20560;-81
2022/10/04 03:15:11;;;;;;;4.13;1.40;;;14.70;61.40;;;;;;5093687;28;20099;-80
2022/10/04 03:17:38;;;;;;;1.25;1.00;;;14.70;61.40;;;;;;5094040;28;20024;-81
2022/10/04 03:20:05;;;;;;;0.90;0.90;;;14.70;61.50;;;;;;5093840;28;20059;-81
2022/10/04 03:22:31;;;;;;;1.10;1.08;;;14.70;61.40;;;;;;5075440;28;20527;-80
2022/10/04 03:24:57;;;;;;;1.15;1.15;;;14.70;61.50;;;;;;5093480;28;20028;-81
2022/10/04 03:27:27;;;;;;;1.10;1.10;;;14.70;61.40;;;;;;5093083;28;20055;-81
2022/10/04 03:29:54;;;;;;;1.45;1.20;;;14.60;61.40;;;;;;5092558;28;20085;-81
2022/10/04 03:32:20;;;;;;;1.30;1.10;;;14.70;61.40;;;;;;5092755;28;20109;-78
2022/10/04 03:35:04;;;;;;;0.88;0.88;;;14.70;61.40;;;;;;5092516;28;20101;-80
2022/10/04 03:37:34;;;;;;;0.95;0.88;;;14.70;61.40;;;;;;5075032;28;20028;-81
2022/10/04 03:40:00;;;;;;;1.10;1.10;;;14.70;61.40;;;;;;5093693;28;20039;-82
2022/10/04 03:42:33;;;;;;;0.88;0.88;;;14.70;61.40;;;;;;5093518;28;20115;-81
2022/10/04 03:45:15;;;;;;;1.13;1.13;;;14.70;61.40;;;;;;5093402;28;20031;-81
2022/10/04 03:47:47;;;;;;;0.98;0.93;;;14.70;61.40;;;;;;5090981;28;20077;-80
2022/10/04 03:50:24;;;;;;;1.35;1.27;;;14.70;61.40;;;;;;5089757;28;20016;-80
2022/10/04 03:52:54;;;;;;;1.40;1.40;;;14.70;61.40;;;;;;5096444;28;20024;-80
2022/10/04 03:55:24;;;;;;;0.90;0.90;;;14.70;61.40;;;;;;5096795;28;20024;-82
2022/10/04 03:57:50;;;;;;;1.02;1.02;;;14.70;61.40;;;;;;5094396;28;20054;-81
2022/10/04 04:00:26;;;;;;;1.15;1.10;;;14.70;61.40;;;;;;5097552;28;20056;-82
2022/10/04 04:02:57;;;;;;;1.10;1.10;;;14.70;61.40;;;;;;5077248;28;20036;-81
2022/10/04 04:05:39;;;;;;;1.20;1.20;;;14.60;61.30;;;;;;5078943;28;20051;-80
2022/10/04 04:08:16;;;;;;;1.13;1.13;;;14.70;61.40;;;;;;5097173;28;20111;-81
2022/10/04 04:10:46;;;;;;;1.10;1.10;;;14.60;62.00;;;;;;5077586;28;20027;-81
2022/10/04 04:13:30;;;;;;;1.20;1.10;;;14.70;61.40;;;;;;5072390;28;20046;-80
2022/10/04 04:16:00;;;;;;;1.48;1.20;;;14.70;61.50;;;;;;5105493;28;20038;-81
2022/10/04 04:18:31;;;;;;;1.20;1.20;;;14.70;61.50;;;;;;5103339;28;20043;-82
2022/10/04 04:21:00;;;;;;;1.17;1.17;;;14.70;61.50;;;;;;5097040;28;20436;-79
2022/10/04 04:23:32;;;;;;;1.20;1.10;;;14.70;61.60;;;;;;5096476;28;20107;-80
2022/10/04 04:26:14;;;;;;;1.35;1.25;;;14.70;61.70;;;;;;5096648;28;20032;-81
2022/10/04 04:29:12;;;;;;;1.10;1.05;;;14.70;61.70;;;;;;5092582;28;20377;-82
2022/10/04 04:31:46;;;;;;;1.77;1.05;;;14.70;61.70;;;;;;5072536;28;20032;-82
2022/10/04 04:34:29;;;;;;;1.03;1.03;;;14.70;61.60;;;;;;5075654;28;20023;-81
2022/10/04 04:37:00;;;;;;;1.13;1.10;;;14.70;61.60;;;;;;5094334;28;20024;-81
2022/10/04 04:39:35;;;;;;;1.40;1.33;;;14.70;61.60;;;;;;5096116;28;20489;-82
2022/10/04 04:42:09;;;;;;;1.38;1.30;;;14.80;61.60;;;;;;5091735;28;20074;-82
2022/10/04 04:44:38;;;;;;;1.60;1.50;;;14.80;61.60;;;;;;5094087;28;20042;-81
2022/10/04 04:47:12;;;;;;;1.05;1.00;;;14.80;61.60;;;;;;5078195;28;20039;-82
2022/10/04 04:49:39;;;;;;;1.30;1.20;;;14.80;61.60;;;;;;5058866;28;20025;-82
2022/10/04 04:52:05;;;;;;;1.13;1.10;;;14.80;61.60;;;;;;5058730;28;20040;-81
2022/10/04 04:54:31;;;;;;;1.42;1.33;;;14.80;61.60;;;;;;5058033;28;20033;-82
2022/10/04 04:56:57;;;;;;;2.60;1.35;;;14.80;61.60;;;;;;5076320;28;20032;-81
2022/10/04 04:59:26;;;;;;;1.60;1.50;;;14.90;61.60;;;;;;5077101;28;20122;-81
2022/10/04 05:01:52;;;;;;;1.20;1.20;;;14.90;61.60;;;;;;5095211;28;20081;-81
2022/10/04 05:04:25;;;;;;;1.63;1.52;;;14.90;61.60;;;;;;5094401;28;20028;-82
2022/10/04 05:07:05;;;;;;;1.60;1.50;;;14.90;61.60;;;;;;5093966;28;20080;-79
2022/10/04 05:09:37;;;;;;;1.50;1.40;;;14.90;62.20;;;;;;5075336;28;20031;-81
2022/10/04 05:12:14;;;;;;;2.55;1.52;;;14.90;62.10;;;;;;5092198;28;20071;-77
2022/10/04 05:14:46;;;;;;;1.77;1.30;;;15.00;61.60;;;;;;5074434;28;20063;-77
2022/10/04 05:17:22;;;;;;;1.75;1.38;;;15.00;61.50;;;;;;5076477;28;20025;-79
2022/10/04 05:19:50;;;;;;;1.83;1.45;;;15.00;61.60;;;;;;5068745;28;20032;-81
2022/10/04 05:22:20;;;;;;;1.35;1.25;;;15.00;61.60;;;;;;5093756;28;20035;-80
2022/10/04 05:24:50;;;;;;;2.05;1.65;;;15.10;61.60;;;;;;5094440;28;20024;-81
2022/10/04 05:27:20;;;;;;;1.40;1.30;;;15.10;61.60;;;;;;5075992;28;20546;-82
2022/10/04 05:30:31;;;;;;;1.10;1.10;;;15.10;61.50;;;;;;5075661;28;20032;-81
2022/10/04 05:33:02;;;;;;;1.50;1.40;;;15.20;61.40;;;;;;4992338;28;20472;-81
2022/10/04 05:35:37;;;;;;;1.33;1.23;;;15.20;61.40;;;;;;5083850;28;20375;-84
2022/10/04 05:38:35;;;;;;;3.25;1.30;;;15.20;61.30;;;;;;5077214;28;20028;-82
2022/10/04 05:41:13;;;;;;;1.52;1.42;;;15.30;61.40;;;;;;5083951;28;20105;-83
2022/10/04 05:43:45;;;;;;;1.30;1.20;;;15.30;61.30;;;;;;5095729;28;20091;-80
2022/10/04 05:46:19;;;;;;;1.48;1.40;;;15.30;61.30;;;;;;5077245;28;20535;-81
2022/10/04 05:48:46;;;;;;;;;;;15.30;61.30;;;;;;5095982;28;20055;-81
2022/10/04 05:51:25;;;;;;;1.23;1.17;;;15.30;61.30;;;;;;5095212;28;19973;-82
2022/10/04 05:53:51;;;;;;;1.67;1.58;;;15.30;61.20;;;;;;5077298;28;20024;-81
2022/10/04 05:56:20;;;;;;;1.67;1.58;;;15.30;61.20;;;;;;5076991;28;20496;-80
2022/10/04 05:59:00;;;;;;;1.25;1.20;;;15.40;61.30;;;;;;5095276;28;20032;-82
2022/10/04 06:01:52;;;;;;;1.20;1.10;;;15.40;61.20;;;;;;5095340;28;20480;-83
2022/10/04 06:04:46;;;;;;;1.25;1.15;;;15.40;61.20;;;;;;5095308;28;20033;-81
2022/10/04 06:07:11;;;;;;;1.05;1.05;;;15.40;61.20;;;;;;5076895;28;20120;-81
2022/10/04 06:10:05;;;;;;;1.00;1.00;;;15.40;61.20;;;;;;5094978;28;20107;-81
2022/10/04 06:12:52;;;;;;;1.15;1.15;;;15.40;61.20;;;;;;5094768;28;20028;-81
2022/10/04 06:15:36;;;;;;;1.60;1.50;;;15.40;61.20;;;;;;5076675;28;20031;-80
2022/10/04 06:18:13;;;;;;;1.55;1.45;;;15.50;61.20;;;;;;5094689;28;20043;-82
2022/10/04 06:20:45;;;;;;;1.52;1.42;;;15.50;61.30;;;;;;5094816;28;20024;-82
2022/10/04 06:23:14;;;;;;;1.40;1.30;;;15.50;61.30;;;;;;5094524;28;20416;-78
2022/10/04 06:26:06;;;;;;;1.30;1.20;;;15.50;61.30;;;;;;5076457;28;20020;-81
2022/10/04 06:28:38;;;;;;;1.48;1.38;;;15.50;61.10;;;;;;5094839;28;20484;-81
2022/10/04 06:31:24;;;;;;;1.55;1.45;;;15.60;61.20;;;;;;5076712;28;20020;-81
2022/10/04 06:34:02;;;;;;;1.63;1.23;;;15.60;61.10;;;;;;5094397;28;20470;-82
2022/10/04 06:36:30;;;;;;;1.50;1.40;;;15.60;61.20;;;;;;5094744;28;20024;-84
2022/10/04 06:39:21;;;;;;;1.35;1.25;;;15.70;61.10;;;;;;5094797;28;20027;-82
2022/10/04 06:41:53;;;;;;;1.40;1.30;;;15.70;61.10;;;;;;5095044;28;20064;-82
2022/10/04 06:44:40;;;;;;;1.77;1.40;;;15.70;61.00;;;;;;5094203;28;20082;-81
2022/10/04 06:47:28;;;;;;;1.60;1.50;;;15.80;61.00;;;;;;5094339;28;20048;-82
2022/10/04 06:50:10;;;;;;;1.40;1.30;;;15.80;60.90;;;;;;5076160;28;20035;-81
2022/10/04 06:52:52;;;;;;;1.30;1.20;;;15.80;60.80;;;;;;5076021;28;20032;-83
2022/10/04 06:55:23;;;;;;;1.00;1.00;;;15.80;60.80;;;;;;5075688;28;20024;-81
2022/10/04 06:58:19;;;;;;;1.70;1.60;;;15.80;60.80;;;;;;5094093;28;20024;-82
2022/10/04 07:01:03;;;;;;;1.35;1.30;;;15.80;60.80;;;;;;5094024;28;20028;-82
2022/10/04 07:04:00;;;;;;;1.42;1.33;;;15.70;60.70;;;;;;5094092;28;20071;-79
2022/10/04 07:06:41;;;;;;;1.30;1.20;;;15.70;60.70;;;;;;5076363;28;20028;-82
2022/10/04 07:09:18;;;;;;;1.65;1.25;;;15.70;60.80;;;;;;5075994;28;20059;-81
2022/10/04 07:12:07;;;;;;;1.48;1.38;;;15.70;60.80;;;;;;5093964;28;20028;-81
2022/10/04 07:14:42;;;;;;;1.60;1.50;;;15.60;60.90;;;;;;5094269;28;20024;-81
2022/10/04 07:17:18;;;;;;;1.80;1.70;;;15.60;60.90;;;;;;5076326;28;20024;-82
2022/10/04 07:19:49;;;;;;;1.40;1.30;;;15.60;60.90;;;;;;5076123;28;20082;-80
2022/10/04 07:22:40;;;;;;;1.48;1.38;;;15.70;60.90;;;;;;5075701;28;20416;-81
2022/10/04 07:25:15;;;;;;;1.50;1.40;;;15.70;60.80;;;;;;5076089;28;20497;-82
2022/10/04 07:27:43;;;;;;;1.50;1.40;;;15.70;60.90;;;;;;5079058;28;20024;-81
2022/10/04 07:30:16;;;;;;;1.00;1.00;;;15.70;60.80;;;;;;5098047;28;20028;-81
2022/10/04 07:32:50;;;;;;;1.15;1.13;;;15.70;60.80;;;;;;5098045;28;20032;-80
2022/10/04 07:35:35;;;;;;;1.48;1.38;;;15.70;60.80;;;;;;5098258;28;20026;-81
2022/10/04 07:38:04;;;;;;;;;;;15.60;60.80;;;;;;5080302;28;20366;-81
2022/10/04 07:40:35;;;;;;;1.33;1.25;;;15.60;60.70;;;;;;5097481;28;19920;-81
2022/10/04 07:43:26;;;;;;;1.48;1.38;;;15.60;60.80;;;;;;5097262;28;20048;-83
2022/10/04 07:46:05;;;;;;;1.55;1.45;;;15.60;60.80;;;;;;5097833;28;20454;-81
2022/10/04 07:48:31;;;;;;;1.70;1.13;;;15.60;60.90;;;;;;5079229;28;20126;-81
2022/10/04 07:51:30;;;;;;;1.30;1.20;;;15.60;61.00;;;;;;5097331;28;20115;-82
2022/10/04 07:54:16;;;;;;;1.38;1.27;;;15.60;61.00;;;;;;5097833;28;20036;-82
2022/10/04 07:56:57;;;;;;;1.50;1.40;;;15.60;61.00;;;;;;5079253;28;20490;-81
2022/10/04 07:59:59;;;;;;;1.50;1.40;;;15.60;61.00;;;;;;5097460;28;20054;-82
2022/10/04 08:02:46;;;;;;;2.05;1.15;;;15.60;61.00;;;;;;5097475;28;20040;-81
2022/10/04 08:05:19;;;;;;;1.77;1.13;;;15.60;61.10;;;;;;5079075;28;20028;-81
2022/10/04 08:07:50;;;;;;;0.93;0.93;;;15.60;61.10;;;;;;5096983;28;20024;-81
2022/10/04 08:10:24;;;;;;;1.30;1.30;;;15.60;61.20;;;;;;5097228;28;20103;-81
2022/10/04 08:13:02;;;;;;;1.15;1.15;;;15.60;61.30;;;;;;5079015;28;20032;-81
2022/10/04 08:15:38;;;;;;;1.65;1.50;;;15.60;61.30;;;;;;5097187;28;20098;-84
2022/10/04 08:18:03;;;;;;;2.63;1.38;;;15.50;61.50;;;;;;5096976;28;20017;-85
2022/10/04 08:21:22;;;;;;;1.75;1.23;;;15.50;61.70;;;;;;5096683;28;20103;-82
2022/10/04 08:23:53;;;;;;;1.42;1.33;;;15.50;61.70;;;;;;5093910;28;20113;-80
2022/10/04 08:26:48;;;;;;;1.38;1.27;;;15.60;61.70;;;;;;5097296;28;20028;-83
2022/10/04 08:29:46;;;;;;;1.20;1.20;;;15.70;61.70;;;;;;5097116;28;20343;-80
2022/10/04 08:33:00;;;;;;;1.35;1.25;;;15.70;61.70;;;;;;5096789;28;20032;-81
2022/10/04 08:35:47;;;;;;;1.42;1.20;;;15.70;61.60;;;;;;4995369;28;20106;-82
2022/10/04 08:38:20;;;;;;;1.40;1.30;;;15.70;61.60;;;;;;4977626;28;20495;-80
2022/10/04 08:41:10;;;;;;;1.75;1.20;;;15.80;61.60;;;;;;5069245;28;20051;-82
2022/10/04 08:43:56;;;;;;;1.25;1.15;;;15.80;61.60;;;;;;5096614;28;20032;-81
2022/10/04 08:46:31;;;;;;;1.05;1.00;;;15.80;61.60;;;;;;5078472;28;20024;-81
2022/10/04 08:49:12;;;;;;;1.08;1.08;;;15.80;61.50;;;;;;5096616;28;20063;-82
2022/10/04 08:51:59;;;;;;;1.40;1.35;;;15.90;61.50;;;;;;5078277;28;20024;-82
2022/10/04 08:54:34;;;;;;;0.98;0.98;;;16.00;61.60;;;;;;5096492;28;20024;-82
2022/10/04 08:57:14;;;;;;;1.33;1.23;;;16.00;61.50;;;;;;5078178;28;20048;-81
2022/10/04 08:59:56;;;;;;;1.10;1.10;;;16.10;61.60;;;;;;5078348;28;20081;-82
2022/10/04 09:02:45;;;;;;;1.10;1.10;;;16.10;61.60;;;;;;5077217;28;20051;-81
2022/10/04 09:05:29;;;;;;;1.73;1.23;;;16.20;61.50;;;;;;5096059;28;20020;-81
2022/10/04 09:08:18;;;;;;;1.43;1.33;;;16.30;61.40;;;;;;5077841;28;20024;-82
2022/10/04 09:11:06;;;;;;;0.95;0.95;;;16.40;61.30;;;;;;5077814;28;20423;-81
2022/10/04 09:13:37;;;;;;;1.42;1.33;;;16.50;61.10;;;;;;5096247;28;20028;-81
2022/10/04 09:16:17;;;;;;;1.30;1.20;;;16.60;61.10;;;;;;5095857;28;20036;-79
2022/10/04 09:18:59;;;;;;;1.20;1.08;;;16.60;60.90;;;;;;5077615;28;20024;-82
2022/10/04 09:21:54;;;;;;;1.40;1.30;;;16.70;60.80;;;;;;5095684;28;20065;-82
2022/10/04 09:24:25;;;;;;;0.90;0.90;;;16.70;60.70;;;;;;5077781;28;20043;-82
2022/10/04 09:27:04;;;;;;;1.10;1.10;;;16.70;60.70;;;;;;5095212;28;20023;-83
2022/10/04 09:29:50;;;;;;;1.30;1.20;;;16.70;60.60;;;;;;5077213;28;20070;-82
2022/10/04 09:33:02;;;;;;;1.50;1.40;;;16.80;60.60;;;;;;5077578;28;20031;-81
2022/10/04 09:36:00;;;;;;;1.38;1.33;;;16.80;60.60;;;;;;5095390;28;20073;-82
2022/10/04 09:38:44;;;;;;;1.48;1.38;;;16.80;60.50;;;;;;5095443;28;20024;-81
2022/10/04 09:41:26;;;;;;;1.10;1.10;;;16.90;60.60;;;;;;5078006;28;20052;-78
2022/10/04 09:44:16;;;;;;;1.25;1.10;;;16.90;60.60;;;;;;5095477;28;20094;-82
2022/10/04 09:47:07;;;;;;;2.25;1.40;;;16.90;60.50;;;;;;5095935;28;20035;-81
2022/10/04 09:49:45;;;;;;;1.42;1.33;;;16.80;60.40;;;;;;5095274;28;20031;-80
2022/10/04 09:52:46;;;;;;;1.27;1.17;;;16.70;60.40;;;;;;5095103;28;20032;-82
2022/10/04 09:55:40;;;;;;;0.93;0.93;;;16.60;60.40;;;;;;5095041;28;20024;-82
2022/10/04 09:58:06;;;;;;;0.98;0.98;;;16.50;60.40;;;;;;5094892;28;20053;-81
2022/10/04 10:01:03;;;;;;;1.85;1.17;;;16.40;60.60;;;;;;5076971;28;20064;-81
2022/10/04 10:03:52;;;;;;;1.15;1.15;;;16.40;60.80;;;;;;5076354;28;20028;-82
2022/10/04 10:06:27;;;;;;;1.15;1.10;;;16.30;61.00;;;;;;5095449;28;20020;-81
2022/10/04 10:09:01;;;;;;;2.30;1.35;;;16.30;61.10;;;;;;5076625;28;20047;-81
2022/10/04 10:14:47;;;;;;;1.30;1.20;;;16.40;61.10;;;;;;5095114;28;19911;-82
2022/10/04 10:17:48;;;;;;;1.30;1.20;;;16.50;61.00;;;;;;5094783;28;20107;-82
2022/10/04 10:20:47;;;;;;;1.10;1.10;;;16.60;60.90;;;;;;5094692;28;20028;-81
2022/10/04 10:23:32;;;;;;;1.00;1.00;;;16.70;60.70;;;;;;5094709;28;20032;-83
2022/10/04 10:26:43;;;;;;;1.25;1.25;;;16.80;60.60;;;;;;5076984;28;20370;-80
2022/10/04 10:29:39;;;;;;;1.25;1.20;;;16.90;60.50;;;;;;5076412;28;20036;-83
2022/10/04 10:32:32;;;;;;;1.15;1.10;;;17.00;60.40;;;;;;5094247;28;20036;-81
2022/10/04 10:35:18;;;;;;;1.27;1.17;;;17.10;60.20;;;;;;5076374;28;20145;-82
2022/10/04 10:38:13;;;;;;;1.10;1.10;;;17.20;60.20;;;;;;5076104;28;20387;-82
2022/10/04 10:40:58;;;;;;;1.00;1.00;;;17.20;59.90;;;;;;5094327;28;20394;-81
2022/10/04 10:43:54;;;;;;;1.60;1.50;;;17.30;59.90;;;;;;5094589;28;20138;-82
2022/10/04 10:46:43;;;;;;;1.05;1.02;;;17.30;59.70;;;;;;5049285;28;20089;-81
2022/10/04 10:49:45;;;;;;;1.73;1.60;;;17.40;59.60;;;;;;5076182;28;20036;-82
2022/10/04 10:52:41;;;;;;;1.48;1.20;;;17.40;59.40;;;;;;5094418;28;20078;-82
2022/10/04 10:55:25;;;;;;;1.63;1.50;;;17.50;59.20;;;;;;5094391;28;20031;-81
2022/10/04 10:58:19;;;;;;;1.65;1.13;;;17.60;59.10;;;;;;5076335;28;20591;-82
2022/10/04 11:01:08;;;;;;;1.58;1.40;;;17.60;58.90;;;;;;5093394;28;20032;-80
2022/10/04 11:04:02;;;;;;;1.70;1.60;;;17.50;58.90;;;;;;5094753;28;20032;-82
2022/10/04 11:06:37;;;;;;;1.55;1.45;;;17.50;58.80;;;;;;5094101;28;20027;-83
2022/10/04 11:09:28;;;;;;;1.42;1.27;;;17.40;59.00;;;;;;5093848;28;20020;-82
2022/10/04 11:12:05;;;;;;;1.08;1.08;;;17.40;59.00;;;;;;5094091;28;20034;-82
2022/10/04 11:14:52;;;;;;;1.48;1.38;;;17.50;59.00;;;;;;5076308;28;20116;-80
2022/10/04 11:17:56;;;;;;;1.58;1.48;;;17.40;58.80;;;;;;5094003;28;20036;-81
2022/10/04 11:20:25;;;;;;;1.45;1.35;;;17.40;58.60;;;;;;5094205;28;20020;-81
2022/10/04 11:23:00;;;;;;;1.58;1.50;;;17.30;58.80;;;;;;5075777;28;20462;-82
2022/10/04 11:25:51;;;;;;;1.15;1.08;;;17.10;58.70;;;;;;5093693;28;20055;-82
2022/10/04 11:28:29;;;;;;;1.63;1.52;;;17.10;58.70;;;;;;5093469;28;20035;-81
2022/10/04 11:31:00;;;;;;;1.40;1.30;;;17.00;59.00;;;;;;5093872;28;20028;-81
2022/10/04 11:33:31;;;;;;;1.30;1.20;;;17.00;59.00;;;;;;5093648;28;20036;-81
2022/10/04 11:36:34;;;;;;;1.40;1.30;;;17.00;59.10;;;;;;5093615;28;20095;-81
2022/10/04 11:39:34;;;;;;;1.50;1.40;;;17.10;59.00;;;;;;5075381;28;20024;-82
2022/10/04 11:42:12;;;;;;;1.55;1.40;;;17.10;58.90;;;;;;5075381;28;20056;-82
2022/10/04 11:45:05;;;;;;;1.48;1.27;;;17.30;59.00;;;;;;5093378;28;20024;-82
2022/10/04 11:47:59;;;;;;;1.17;1.17;;;17.30;58.70;;;;;;5093982;28;20028;-81
2022/10/04 11:50:48;;;;;;;1.70;1.60;;;17.40;58.80;;;;;;5021183;28;20080;-81
2022/10/04 11:53:28;;;;;;;1.40;1.30;;;17.40;58.50;;;;;;5093206;28;20109;-80
2022/10/04 11:56:02;;;;;;;1.35;1.25;;;17.50;58.40;;;;;;5093341;28;20017;-81
2022/10/04 11:58:54;;;;;;;1.55;1.45;;;17.50;58.40;;;;;;5075906;28;20046;-81
2022/10/04 12:01:47;;;;;;;1.38;1.27;;;17.60;58.30;;;;;;5074907;28;20041;-82
2022/10/04 12:04:50;;;;;;;1.65;1.55;;;17.60;58.00;;;;;;5075464;28;20512;-80
2022/10/04 12:07:33;;;;;;;2.85;1.60;;;17.60;58.00;;;;;;5093280;28;20070;-82
2022/10/04 12:10:26;;;;;;;1.30;1.20;;;17.50;58.00;;;;;;5075494;28;20449;-81
2022/10/04 12:12:51;;;;;;;1.50;1.40;;;17.50;58.00;;;;;;5077562;28;20028;-81
2022/10/04 12:15:21;;;;;;;1.58;1.48;;;17.50;58.10;;;;;;5096845;28;20481;-82
2022/10/04 12:18:05;;;;;;;1.33;1.25;;;17.50;58.10;;;;;;5096789;28;20035;-83
2022/10/04 12:20:39;;;;;;;1.50;1.40;;;17.50;58.00;;;;;;5097343;28;20097;-82
2022/10/04 12:23:38;;;;;;;1.50;1.40;;;17.50;58.00;;;;;;5096909;28;20416;-81
2022/10/04 12:26:22;;;;;;;1.23;1.23;;;17.50;57.70;;;;;;5096931;28;20055;-82
2022/10/04 12:29:03;;;;;;;1.08;1.08;;;17.40;57.80;;;;;;5079098;28;20126;-81
2022/10/04 12:31:42;;;;;;;1.60;1.50;;;17.40;57.80;;;;;;5078954;28;20021;-82
2022/10/04 12:34:14;;;;;;;1.45;1.35;;;17.40;57.70;;;;;;5096702;28;20122;-80
2022/10/04 12:37:09;;;;;;;2.03;1.40;;;17.40;57.80;;;;;;5096455;28;20031;-82
2022/10/04 12:39:56;;;;;;;1.35;1.25;;;17.40;57.30;;;;;;5097011;28;20024;-82
2022/10/04 12:42:59;;;;;;;1.40;1.30;;;17.30;57.30;;;;;;5074887;28;20048;-83
2022/10/04 12:45:36;;;;;;;1.23;1.20;;;17.30;57.00;;;;;;5076191;28;20037;-80
2022/10/04 12:48:33;;;;;;;1.55;1.45;;;17.20;57.40;;;;;;5074972;28;20021;-80
2022/10/04 12:51:07;;;;;;;1.73;1.50;;;17.10;57.00;;;;;;5076668;28;20035;-81
2022/10/04 12:53:50;;;;;;;;;;;17.00;57.40;;;;;;5076413;28;20035;-81
2022/10/04 12:56:42;;;;;;;1.13;1.13;;;16.80;56.50;;;;;;5075933;28;19905;-82
2022/10/04 12:59:16;;;;;;;1.23;1.13;;;16.80;57.20;;;;;;5076492;28;20024;-82
2022/10/04 13:02:10;;;;;;;1.55;1.45;;;16.80;57.50;;;;;;5076009;28;20051;-84
2022/10/04 13:04:46;;;;;;;1.58;1.48;;;16.80;57.30;;;;;;5075992;28;20463;-82
2022/10/04 13:07:50;;;;;;;1.60;1.50;;;16.70;57.60;;;;;;5074899;28;20029;-82
2022/10/04 13:10:26;;;;;;;1.65;1.55;;;16.60;57.30;;;;;;5075531;28;20017;-84
2022/10/04 13:13:30;;;;;;;1.45;1.35;;;16.60;57.50;;;;;;5075821;28;20021;-83
2022/10/04 13:16:13;;;;;;;1.50;1.40;;;16.70;57.40;;;;;;5074596;28;20020;-80
2022/10/04 13:18:57;;;;;;;1.70;1.60;;;16.70;57.30;;;;;;5075552;28;20020;-82
2022/10/04 13:21:55;;;;;;;1.60;1.50;;;16.70;57.50;;;;;;5074738;28;20025;-82
2022/10/04 13:24:53;;;;;;;1.67;1.58;;;16.70;57.20;;;;;;5075224;28;20051;-84
2022/10/04 13:27:40;;;;;;;1.52;1.30;;;16.70;57.40;;;;;;5074400;28;20086;-82
2022/10/04 13:30:06;;;;;;;2.58;1.30;;;16.70;57.20;;;;;;5034345;28;20028;-81
2022/10/04 13:33:00;;;;;;;1.67;1.58;;;16.70;57.30;;;;;;5075275;28;20371;-82
2022/10/04 13:35:41;;;;;;;1.83;1.70;;;16.70;57.10;;;;;;5075244;28;20025;-81
2022/10/04 13:38:28;;;;;;;1.83;1.73;;;16.70;57.20;;;;;;5075259;28;20120;-83
2022/10/04 13:40:54;;;;;;;1.40;1.30;;;16.70;57.20;;;;;;5084115;28;20478;-82
2022/10/04 13:43:34;;;;;;;2.00;1.85;;;16.70;57.20;;;;;;5095712;28;20508;-81
2022/10/04 13:46:14;;;;;;;1.75;1.65;;;16.70;57.10;;;;;;5077916;28;20051;-81
2022/10/04 13:48:49;;;;;;;1.67;1.58;;;16.70;57.10;;;;;;5076761;28;20028;-83
2022/10/04 13:51:28;;;;;;;2.00;1.90;;;16.70;57.20;;;;;;5076964;28;20130;-81
2022/10/04 13:57:19;;;;;;;1.88;1.77;;;16.60;57.20;;;;;;5095166;28;20035;-83
2022/10/04 14:00:02;;;;;;;2.50;1.63;;;16.60;57.20;;;;;;5095248;28;20019;-82
2022/10/04 14:02:42;;;;;;;1.55;1.45;;;16.60;57.00;;;;;;5094811;28;20036;-83